9MA8 weather

Wayne West Heliport
Carver, Massachusetts, United States

Public forecast

Using degrees Fahrenheit for public forecast. Weather courtesy of forecast.io.

METAR (pilot weather report)

Closest report is Plymouth Municipal Airport, 4.0 nm (7.4 km) NNE. Retrieved 2019/07/18 00:52 UTC (1 hour ago):

KPYM 180052Z AUTO 16004KT 10SM -RA BKN110 23/22 A2989 RMK AO2 SLP119 P0016 T02280222

TAF (pilot weather forecast)

Forecast is more than 12 hours old.

Closest forecast is Cape Cod Coast Guard Air Station, 15.6 nm (28.9 km) SE. Retrieved 2019/07/17 00:24 UTC (1 day ago):

TAF KFMH 172322Z 1800/1824 24008KT P6SM -SHRA VCTS OVC004CB FM180200 25006KT 4SM BR OVC004 FM181000 03003KT 2SM BR VCSH OVC010 FM181100 07003KT 3SM -SHRA BR OVC015 FM181700 10005KT 3SM -SHRA BR VCSH OVC008 FM182000 07005KT 3SM BR VCSH OVC008